createdAt,value
2022-09-07T00:02:08.349Z,6.07
2022-09-07T00:05:11.859Z,7.20
2022-09-07T00:08:17.210Z,7.18
2022-09-07T00:11:21.595Z,6.67
2022-09-07T00:14:25.276Z,6.90
2022-09-07T00:17:28.727Z,9.05
2022-09-07T00:20:32.422Z,9.27
2022-09-07T00:23:37.360Z,7.72
2022-09-07T00:26:40.888Z,6.23
2022-09-07T00:29:44.694Z,7.33
2022-09-07T00:32:47.893Z,7.55
2022-09-07T00:35:52.247Z,6.30
2022-09-07T00:38:55.949Z,6.97
2022-09-07T00:41:58.980Z,7.20
2022-09-07T00:45:07.930Z,7.50
2022-09-07T00:48:18.789Z,7.43
2022-09-07T00:51:35.180Z,6.95
2022-09-07T00:54:43.540Z,6.82
2022-09-07T00:57:50.581Z,9.80
2022-09-07T01:00:55.774Z,8.23
2022-09-07T01:04:01.780Z,8.82
2022-09-07T01:07:09.385Z,7.22
2022-09-07T01:10:13.656Z,6.88
2022-09-07T01:13:17.801Z,6.60
2022-09-07T01:16:40.632Z,8.00
2022-09-07T01:19:44.835Z,7.75
2022-09-07T01:23:00.686Z,8.02
2022-09-07T01:26:41.608Z,7.82
2022-09-07T01:30:03.183Z,8.10
2022-09-07T01:33:07.365Z,9.83
2022-09-07T01:36:30.039Z,10.20
2022-09-07T01:39:51.406Z,11.75
2022-09-07T01:43:00.901Z,14.68
2022-09-07T01:46:12.838Z,14.20
2022-09-07T01:50:02.795Z,14.10
2022-09-07T01:53:12.629Z,15.88
2022-09-07T01:56:24.287Z,15.38
2022-09-07T01:59:42.335Z,13.95
2022-09-07T02:03:19.179Z,12.43
2022-09-07T02:06:45.311Z,13.20
2022-09-07T02:09:52.027Z,10.85
2022-09-07T02:13:00.312Z,8.63
2022-09-07T02:16:07.515Z,9.02
2022-09-07T02:19:17.789Z,7.97
2022-09-07T02:22:28.988Z,7.77
2022-09-07T02:25:46.217Z,8.65
2022-09-07T02:28:50.402Z,10.60
2022-09-07T02:31:54.641Z,10.52
2022-09-07T02:34:58.624Z,10.47
2022-09-07T02:38:06.344Z,11.53
2022-09-07T02:41:36.265Z,8.20
2022-09-07T02:44:43.139Z,7.57
2022-09-07T02:48:04.662Z,8.95
2022-09-07T02:51:22.147Z,8.43
2022-09-07T02:54:43.386Z,7.10
2022-09-07T02:58:05.093Z,7.97
2022-09-07T03:01:22.356Z,7.85
2022-09-07T03:04:47.458Z,7.55
2022-09-07T03:07:57.227Z,8.33
2022-09-07T03:11:01.068Z,6.17
2022-09-07T03:14:16.929Z,5.97
2022-09-07T03:17:21.528Z,7.40
2022-09-07T03:20:25.415Z,8.60
2022-09-07T03:23:29.432Z,8.10
2022-09-07T03:26:32.941Z,8.70
2022-09-07T03:29:40.184Z,6.10
2022-09-07T03:32:44.828Z,5.47
2022-09-07T03:35:59.224Z,6.03
2022-09-07T03:39:02.996Z,6.60
2022-09-07T03:42:06.496Z,7.30
2022-09-07T03:45:10.908Z,7.15
2022-09-07T03:48:14.268Z,8.20
2022-09-07T03:51:19.154Z,7.53
2022-09-07T03:54:23.683Z,7.20
2022-09-07T03:57:27.041Z,7.07
2022-09-07T04:00:31.262Z,6.18
2022-09-07T04:03:34.899Z,6.13
2022-09-07T04:06:38.380Z,6.65
2022-09-07T04:09:42.077Z,4.57
2022-09-07T04:12:46.193Z,5.70
2022-09-07T04:15:53.362Z,5.57
2022-09-07T04:18:59.587Z,4.63
2022-09-07T04:22:02.748Z,4.90
2022-09-07T04:25:07.032Z,3.43
2022-09-07T04:28:10.755Z,2.83
2022-09-07T04:31:19.823Z,2.60
2022-09-07T04:34:23.683Z,2.28
2022-09-07T04:37:27.168Z,2.20
2022-09-07T04:40:31.093Z,2.27
2022-09-07T04:43:35.938Z,2.30
2022-09-07T04:46:39.723Z,2.60
2022-09-07T04:49:43.841Z,1.75
2022-09-07T04:52:46.869Z,2.63
2022-09-07T04:55:50.207Z,2.60
2022-09-07T04:58:53.459Z,3.20
2022-09-07T05:01:57.591Z,2.83
2022-09-07T05:05:02.850Z,3.00
2022-09-07T05:08:06.797Z,2.53
2022-09-07T05:11:12.266Z,3.77
2022-09-07T05:14:15.784Z,2.50
2022-09-07T05:17:19.798Z,2.55
2022-09-07T05:20:23.923Z,2.50
2022-09-07T05:23:27.769Z,4.00
2022-09-07T05:26:33.930Z,3.33
2022-09-07T05:33:01.509Z,2.30
2022-09-07T05:36:07.263Z,2.20
2022-09-07T05:39:11.314Z,2.60
2022-09-07T05:42:15.251Z,2.70
2022-09-07T05:45:18.937Z,2.93
2022-09-07T05:48:23.112Z,2.30
2022-09-07T05:51:26.163Z,2.53
2022-09-07T05:54:30.007Z,2.17
2022-09-07T05:57:32.933Z,2.50
2022-09-07T06:00:36.361Z,3.03
2022-09-07T06:03:41.912Z,2.70
2022-09-07T06:06:54.598Z,2.90
2022-09-07T06:13:32.692Z,3.30
2022-09-07T06:16:36.135Z,3.10
2022-09-07T06:19:39.342Z,3.10
2022-09-07T06:22:42.640Z,3.97
2022-09-07T06:25:50.350Z,4.22
2022-09-07T06:28:57.746Z,3.07
2022-09-07T06:35:24.892Z,3.38
2022-09-07T06:38:38.129Z,3.80
2022-09-07T06:45:07.597Z,3.37
2022-09-07T06:48:11.431Z,3.40
2022-09-07T06:51:19.457Z,4.18
2022-09-07T06:57:46.849Z,3.13
2022-09-07T07:00:50.768Z,2.60
2022-09-07T07:03:54.925Z,2.70
2022-09-07T07:06:58.514Z,2.70
2022-09-07T07:10:02.257Z,3.28
2022-09-07T07:13:06.781Z,5.20
2022-09-07T07:16:12.952Z,2.60
2022-09-07T07:19:17.086Z,2.87
2022-09-07T07:25:44.616Z,2.78
2022-09-07T07:32:02.846Z,3.17
2022-09-07T07:35:07.948Z,2.90
2022-09-07T07:48:21.798Z,3.40
2022-09-07T07:51:25.647Z,3.40
2022-09-07T07:54:29.226Z,3.63
2022-09-07T07:57:33.330Z,3.45
2022-09-07T08:00:51.011Z,3.08
2022-09-07T08:03:56.827Z,3.27
2022-09-07T08:07:00.508Z,5.10
2022-09-07T08:10:04.048Z,3.20
2022-09-07T08:13:08.069Z,3.47
2022-09-07T08:16:13.403Z,3.40
2022-09-07T08:19:16.654Z,2.90
2022-09-07T08:22:20.922Z,2.50
2022-09-07T08:25:25.886Z,2.90
2022-09-07T08:28:32.375Z,3.00
2022-09-07T08:31:35.767Z,2.67
2022-09-07T08:34:39.805Z,2.53
2022-09-07T08:37:43.434Z,3.10
2022-09-07T08:40:48.043Z,2.97
2022-09-07T08:44:00.411Z,3.92
2022-09-07T08:47:24.375Z,3.92
2022-09-07T08:50:34.269Z,4.10
2022-09-07T08:53:45.909Z,3.60
2022-09-07T09:00:19.765Z,3.70
2022-09-07T09:03:33.128Z,3.83
2022-09-07T09:07:04.754Z,3.80
2022-09-07T09:10:08.181Z,3.77
2022-09-07T09:13:32.052Z,4.10
2022-09-07T09:16:44.434Z,3.63
2022-09-07T09:19:59.397Z,4.70
2022-09-07T09:23:12.895Z,4.93
2022-09-07T09:26:24.460Z,3.60
2022-09-07T09:29:29.115Z,3.53
2022-09-07T09:32:44.567Z,5.22
2022-09-07T09:35:53.600Z,3.10
2022-09-07T09:38:58.063Z,3.00
2022-09-07T09:42:17.704Z,3.20
2022-09-07T09:46:12.234Z,2.85
2022-09-07T09:49:01.292Z,3.05
2022-09-07T09:52:29.677Z,4.28
2022-09-07T09:55:38.966Z,3.50
2022-09-07T10:06:02.033Z,2.35
2022-09-07T10:09:15.705Z,2.40
2022-09-07T10:12:33.704Z,2.90
2022-09-07T10:15:42.376Z,2.77
2022-09-07T10:19:00.408Z,3.67
2022-09-07T10:22:39.638Z,6.07
2022-09-07T10:26:29.927Z,5.07
2022-09-07T10:29:37.711Z,6.90
2022-09-07T10:33:21.548Z,6.10
2022-09-07T10:36:46.728Z,6.72
2022-09-07T10:40:44.806Z,4.55
2022-09-07T10:43:50.704Z,6.28
2022-09-07T10:47:11.830Z,7.23
2022-09-07T10:50:50.946Z,21.13
2022-09-07T10:54:30.977Z,11.52
2022-09-07T10:59:07.100Z,8.75
2022-09-07T11:07:30.554Z,4.50
2022-09-07T11:11:02.226Z,4.63
2022-09-07T11:14:50.048Z,3.60
2022-09-07T11:18:29.109Z,4.35
2022-09-07T11:22:00.278Z,3.20
2022-09-07T11:25:31.365Z,3.30
2022-09-07T11:33:06.377Z,4.47
2022-09-07T11:36:24.239Z,4.88
2022-09-07T11:40:07.634Z,3.85
2022-09-07T11:43:45.865Z,4.13
2022-09-07T11:46:57.008Z,4.23
2022-09-07T11:50:04.150Z,3.97
2022-09-07T11:53:27.303Z,5.70
2022-09-07T11:57:01.044Z,4.40
2022-09-07T12:00:12.936Z,6.03
2022-09-07T12:03:38.062Z,5.47
2022-09-07T12:07:14.127Z,4.90
2022-09-07T12:10:48.086Z,5.28
2022-09-07T12:14:18.473Z,17.95
2022-09-07T12:17:48.457Z,8.43
2022-09-07T12:20:57.394Z,5.10
2022-09-07T12:24:02.741Z,5.70
2022-09-07T12:27:13.761Z,6.68
2022-09-07T12:31:06.555Z,6.30
2022-09-07T12:34:36.658Z,5.87
2022-09-07T12:38:09.927Z,5.37
2022-09-07T12:45:57.585Z,4.15
2022-09-07T12:49:28.171Z,5.00
2022-09-07T12:52:52.533Z,4.37
2022-09-07T12:56:16.309Z,3.63
2022-09-07T13:00:08.053Z,3.72
2022-09-07T13:07:34.529Z,3.67
2022-09-07T13:10:45.154Z,2.50
2022-09-07T13:14:19.953Z,30.87
2022-09-07T13:17:45.703Z,2.30
2022-09-07T13:21:09.804Z,2.65
2022-09-07T13:27:55.751Z,1.90
2022-09-07T13:31:27.915Z,2.57
2022-09-07T13:34:35.617Z,1.90
2022-09-07T13:37:53.410Z,2.22
2022-09-07T13:41:06.140Z,1.65
2022-09-07T13:44:39.903Z,1.47
2022-09-07T13:47:55.769Z,1.50
2022-09-07T13:51:42.694Z,1.60
2022-09-07T13:54:54.535Z,1.95
2022-09-07T13:58:20.425Z,1.88
2022-09-07T14:01:27.058Z,1.97
2022-09-07T14:04:44.071Z,1.90
2022-09-07T14:07:48.634Z,2.22
2022-09-07T14:10:52.604Z,2.50
2022-09-07T14:14:19.305Z,2.63
2022-09-07T14:17:24.588Z,2.43
2022-09-07T14:20:29.030Z,2.47
2022-09-07T14:23:35.867Z,2.30
2022-09-07T14:26:48.268Z,2.50
2022-09-07T14:29:52.283Z,2.33
2022-09-07T14:33:03.763Z,2.50
2022-09-07T14:36:29.445Z,2.00
2022-09-07T14:39:39.254Z,2.40
2022-09-07T14:42:43.889Z,2.30
2022-09-07T14:45:47.673Z,2.13
2022-09-07T14:48:55.319Z,2.20
2022-09-07T14:52:00.801Z,1.90
2022-09-07T14:55:28.610Z,1.60
2022-09-07T14:58:32.903Z,1.60
2022-09-07T15:01:37.718Z,1.70
2022-09-07T15:04:41.157Z,2.00
2022-09-07T15:07:55.329Z,2.10
2022-09-07T15:11:39.989Z,2.03
2022-09-07T15:14:43.647Z,1.50
2022-09-07T15:17:47.639Z,1.25
2022-09-07T15:20:52.900Z,1.27
2022-09-07T15:23:59.050Z,1.30
2022-09-07T15:27:03.836Z,1.80
2022-09-07T15:30:10.344Z,1.33
2022-09-07T15:33:14.373Z,1.50
2022-09-07T15:36:19.121Z,1.23
2022-09-07T15:39:28.799Z,1.50
2022-09-07T15:45:56.828Z,1.52
2022-09-07T15:49:01.668Z,1.95
2022-09-07T15:52:05.837Z,2.00
2022-09-07T15:55:10.300Z,1.80
2022-09-07T15:58:14.431Z,1.38
2022-09-07T16:04:42.223Z,1.90
2022-09-07T16:11:28.377Z,1.43
2022-09-07T16:14:35.090Z,1.98
2022-09-07T16:17:47.247Z,2.03
2022-09-07T16:20:53.680Z,1.90
2022-09-07T16:23:57.232Z,1.83
2022-09-07T16:27:01.585Z,2.80
2022-09-07T16:30:06.715Z,6.93
2022-09-07T16:33:10.659Z,3.00
2022-09-07T16:36:16.536Z,3.28
2022-09-07T16:39:20.190Z,2.33
2022-09-07T16:42:23.986Z,2.20
2022-09-07T16:48:52.365Z,2.38
2022-09-07T16:51:56.082Z,2.45
2022-09-07T16:54:59.779Z,2.40
2022-09-07T17:01:29.697Z,2.70
2022-09-07T17:04:33.702Z,2.67
2022-09-07T17:07:37.662Z,2.70
2022-09-07T17:10:41.401Z,2.73
2022-09-07T17:13:46.126Z,2.60
2022-09-07T17:16:49.971Z,2.45
2022-09-07T17:19:53.938Z,1.98
2022-09-07T17:22:57.630Z,1.60
2022-09-07T17:26:15.797Z,1.60
2022-09-07T17:29:18.955Z,1.60
2022-09-07T17:32:24.571Z,1.60
2022-09-07T17:35:30.764Z,1.20
2022-09-07T17:42:02.857Z,1.40
2022-09-07T17:45:08.706Z,1.47
2022-09-07T17:48:11.787Z,1.33
2022-09-07T17:51:17.142Z,1.48
2022-09-07T17:54:20.262Z,1.38
2022-09-07T17:57:24.784Z,1.53
2022-09-07T18:00:28.026Z,1.27
2022-09-07T18:03:36.005Z,1.60
2022-09-07T18:06:40.300Z,1.20
2022-09-07T18:09:44.681Z,1.17
2022-09-07T18:12:48.172Z,1.00
2022-09-07T18:15:52.769Z,0.80
2022-09-07T18:18:59.971Z,0.90
2022-09-07T18:22:04.979Z,0.73
2022-09-07T18:25:10.367Z,0.95
2022-09-07T18:31:39.689Z,3.67
2022-09-07T18:34:48.271Z,5.68
2022-09-07T18:37:54.541Z,4.38
2022-09-07T18:41:12.538Z,3.97
2022-09-07T18:47:41.052Z,5.00
2022-09-07T18:50:44.411Z,4.25
2022-09-07T18:53:48.488Z,4.20
2022-09-07T18:56:51.658Z,4.00
2022-09-07T18:59:55.455Z,2.60
2022-09-07T19:02:59.729Z,3.20
2022-09-07T19:06:14.193Z,2.50
2022-09-07T19:09:18.008Z,2.42
2022-09-07T19:12:21.769Z,2.55
2022-09-07T19:15:24.824Z,2.57
2022-09-07T19:18:28.446Z,2.70
2022-09-07T19:21:37.865Z,2.60
2022-09-07T19:24:41.611Z,3.22
2022-09-07T19:27:44.935Z,2.85
2022-09-07T19:30:48.785Z,3.00
2022-09-07T19:33:59.646Z,2.30
2022-09-07T19:37:04.718Z,2.35
2022-09-07T19:40:14.761Z,2.50
2022-09-07T19:43:22.190Z,2.38
2022-09-07T19:46:26.341Z,2.00
2022-09-07T19:49:31.134Z,2.07
2022-09-07T19:52:35.177Z,1.67
2022-09-07T19:55:38.555Z,1.50
2022-09-07T19:58:44.260Z,2.15
2022-09-07T20:01:49.936Z,2.10
2022-09-07T20:04:53.274Z,1.70
2022-09-07T20:07:56.932Z,1.48
2022-09-07T20:11:05.764Z,1.20
2022-09-07T20:14:09.496Z,1.40
2022-09-07T20:17:13.183Z,1.27
2022-09-07T20:20:17.127Z,1.37
2022-09-07T20:23:21.785Z,1.35
2022-09-07T20:26:25.120Z,1.38
2022-09-07T20:29:29.260Z,1.60
2022-09-07T20:32:34.253Z,1.43
2022-09-07T20:35:38.511Z,1.53
2022-09-07T20:38:47.701Z,1.30
2022-09-07T20:41:50.841Z,1.80
2022-09-07T20:44:55.299Z,1.70
2022-09-07T20:47:59.025Z,1.90
2022-09-07T20:51:04.702Z,1.67
2022-09-07T20:54:08.016Z,1.80
2022-09-07T20:57:11.695Z,2.08
2022-09-07T21:00:15.438Z,2.25
2022-09-07T21:03:19.532Z,2.30
2022-09-07T21:06:25.137Z,2.00
2022-09-07T21:09:28.134Z,1.60
2022-09-07T21:12:32.483Z,1.73
2022-09-07T21:15:40.710Z,1.48
2022-09-07T21:18:45.094Z,1.97
2022-09-07T21:21:48.835Z,2.30
2022-09-07T21:24:52.997Z,2.10
2022-09-07T21:27:56.335Z,2.40
2022-09-07T21:31:10.167Z,2.70
2022-09-07T21:34:14.597Z,1.93
2022-09-07T21:37:17.555Z,2.40
2022-09-07T21:40:21.332Z,2.00
2022-09-07T21:43:25.226Z,3.33
2022-09-07T21:46:30.661Z,4.30
2022-09-07T21:49:35.117Z,4.53
2022-09-07T21:52:39.473Z,5.20
2022-09-07T21:55:43.085Z,4.60
2022-09-07T21:58:46.912Z,4.80
2022-09-07T22:01:50.779Z,5.18
2022-09-07T22:04:53.694Z,4.53
2022-09-07T22:07:57.692Z,5.37
2022-09-07T22:11:10.547Z,5.07
2022-09-07T22:14:14.297Z,4.40
2022-09-07T22:17:18.102Z,6.05
2022-09-07T22:20:22.376Z,4.23
2022-09-07T22:23:25.509Z,3.50
2022-09-07T22:26:31.816Z,3.28
2022-09-07T22:29:35.515Z,4.43
2022-09-07T22:32:38.828Z,3.90
2022-09-07T22:35:42.536Z,3.87
2022-09-07T22:38:47.449Z,4.30
2022-09-07T22:41:51.040Z,9.70
2022-09-07T22:44:55.726Z,6.10
2022-09-07T22:47:59.428Z,7.90
2022-09-07T22:51:04.039Z,10.40
2022-09-07T22:54:07.178Z,11.40
2022-09-07T22:57:11.400Z,10.73
2022-09-07T23:00:14.675Z,10.25
2022-09-07T23:03:19.392Z,10.15
2022-09-07T23:06:31.270Z,10.30
2022-09-07T23:09:35.109Z,9.87
2022-09-07T23:12:40.862Z,10.00
2022-09-07T23:15:44.804Z,9.70
2022-09-07T23:18:47.902Z,10.73
2022-09-07T23:21:51.997Z,10.87
2022-09-07T23:24:55.232Z,10.10
2022-09-07T23:27:59.312Z,9.85
2022-09-07T23:31:02.658Z,9.85
2022-09-07T23:34:06.925Z,11.02
2022-09-07T23:37:11.503Z,10.57
2022-09-07T23:40:15.296Z,9.57
2022-09-07T23:43:18.241Z,9.45
2022-09-07T23:46:22.134Z,7.57
2022-09-07T23:49:26.213Z,9.00
2022-09-07T23:52:29.854Z,11.10
2022-09-07T23:55:33.986Z,8.27
2022-09-07T23:58:37.704Z,8.07
